Terminal Aerodrome Forecast
Issued by NWS

Home | Current Version | Previous Version | Text Only | Print | Product List | Glossary On
Versions: 1 2 3 4 5 6 7 8 9 10 11 12 13 14 15 16 17 18 19 20 21 22 23 24
000
FTUS44 KMOB 301100
TAFBFM
TAF
KBFM 301123Z 3012/3112 16006KT P6SM VCSH BKN150
     FM301500 16011KT P6SM VCTS SCT030CB BKN120 BKN250
     FM310100 15005KT P6SM FEW040 SCT100 BKN200=

USA.gov is the U.S. government's official web portal to all federal, state and local government web resources and services.